createdAt,value
2018-02-03T00:01:59.315Z,2.63
2018-02-03T00:04:25.422Z,2.67
2018-02-03T00:06:51.589Z,2.70
2018-02-03T00:09:17.818Z,2.75
2018-02-03T00:11:44.002Z,2.77
2018-02-03T00:14:10.248Z,2.80
2018-02-03T00:16:36.455Z,2.83
2018-02-03T00:19:02.727Z,2.80
2018-02-03T00:21:28.868Z,2.74
2018-02-03T00:23:55.081Z,2.68
2018-02-03T00:26:21.241Z,2.59
2018-02-03T00:28:47.453Z,2.51
2018-02-03T00:31:13.594Z,2.44
2018-02-03T00:33:39.935Z,2.39
2018-02-03T00:36:06.062Z,2.40
2018-02-03T00:38:32.318Z,2.43
2018-02-03T00:40:58.483Z,2.45
2018-02-03T00:43:24.630Z,2.46
2018-02-03T00:45:50.834Z,2.49
2018-02-03T00:48:17.039Z,2.50
2018-02-03T00:50:43.208Z,2.54
2018-02-03T00:53:09.371Z,2.62
2018-02-03T00:55:35.530Z,2.71
2018-02-03T00:58:01.647Z,2.78
2018-02-03T01:00:27.869Z,2.82
2018-02-03T01:02:54.021Z,2.84
2018-02-03T01:05:20.146Z,2.87
2018-02-03T01:07:46.300Z,2.95
2018-02-03T01:10:12.500Z,3.05
2018-02-03T01:12:38.669Z,3.15
2018-02-03T01:15:05.658Z,3.26
2018-02-03T01:17:31.827Z,3.31
2018-02-03T01:19:58.059Z,3.35
2018-02-03T01:22:24.232Z,3.39
2018-02-03T01:24:50.392Z,3.42
2018-02-03T01:27:17.127Z,3.46
2018-02-03T01:29:43.326Z,3.47
2018-02-03T01:32:09.477Z,3.49
2018-02-03T01:34:35.654Z,3.50
2018-02-03T01:37:01.793Z,3.52
2018-02-03T01:39:28.005Z,3.55
2018-02-03T01:41:54.159Z,3.56
2018-02-03T01:44:20.299Z,3.57
2018-02-03T01:46:46.524Z,3.57
2018-02-03T01:49:12.757Z,3.57
2018-02-03T01:51:38.975Z,3.59
2018-02-03T01:54:05.111Z,3.59
2018-02-03T01:56:31.290Z,3.58
2018-02-03T01:58:57.597Z,3.57
2018-02-03T02:01:23.730Z,3.56
2018-02-03T02:03:49.870Z,3.54
2018-02-03T02:06:16.024Z,3.53
2018-02-03T02:08:42.174Z,3.54
2018-02-03T02:11:08.434Z,3.54
2018-02-03T02:13:34.609Z,3.53
2018-02-03T02:16:00.829Z,3.53
2018-02-03T02:18:26.985Z,3.52
2018-02-03T02:20:53.173Z,3.50
2018-02-03T02:23:19.303Z,3.50
2018-02-03T02:25:45.488Z,3.47
2018-02-03T02:28:11.643Z,3.47
2018-02-03T02:30:38.030Z,3.47
2018-02-03T02:33:04.230Z,3.49
2018-02-03T02:35:30.420Z,3.48
2018-02-03T02:37:56.663Z,3.49
2018-02-03T02:40:22.895Z,3.48
2018-02-03T02:42:49.118Z,3.49
2018-02-03T02:45:15.373Z,3.49
2018-02-03T02:47:41.534Z,3.49
2018-02-03T02:50:07.716Z,3.49
2018-02-03T02:52:33.978Z,3.48
2018-02-03T02:55:00.103Z,3.47
2018-02-03T02:57:26.255Z,3.45
2018-02-03T02:59:52.458Z,3.42
2018-02-03T03:02:18.688Z,3.42
2018-02-03T03:04:44.828Z,3.39
2018-02-03T03:07:10.995Z,3.38
2018-02-03T03:09:37.180Z,3.38
2018-02-03T03:12:03.352Z,3.37
2018-02-03T03:14:29.520Z,3.38
2018-02-03T03:16:55.659Z,3.39
2018-02-03T03:19:21.828Z,3.40
2018-02-03T03:21:48.055Z,3.41
2018-02-03T03:24:14.239Z,3.42
2018-02-03T03:26:40.360Z,3.43
2018-02-03T03:29:06.504Z,3.45
2018-02-03T03:31:32.698Z,3.46
2018-02-03T03:33:58.893Z,3.46
2018-02-03T03:36:25.034Z,3.45
2018-02-03T03:38:51.242Z,3.44
2018-02-03T03:41:17.352Z,3.44
2018-02-03T03:43:43.735Z,3.44
2018-02-03T03:46:09.880Z,3.44
2018-02-03T03:48:36.052Z,3.42
2018-02-03T03:51:02.214Z,3.42
2018-02-03T03:53:28.368Z,3.42
2018-02-03T03:55:54.493Z,3.42
2018-02-03T03:58:27.629Z,3.41
2018-02-03T04:00:53.776Z,3.40
2018-02-03T04:03:20.009Z,3.40
2018-02-03T04:05:46.735Z,3.40
2018-02-03T04:08:12.883Z,3.38
2018-02-03T04:10:39.088Z,3.33
2018-02-03T04:13:12.135Z,3.34
2018-02-03T04:15:38.279Z,3.34
2018-02-03T04:18:04.448Z,3.35
2018-02-03T04:20:30.665Z,3.37
2018-02-03T04:22:56.930Z,3.43
2018-02-03T04:25:23.055Z,3.48
2018-02-03T04:27:49.181Z,3.50
2018-02-03T04:30:15.417Z,3.53
2018-02-03T04:32:41.554Z,3.60
2018-02-03T04:35:07.691Z,3.62
2018-02-03T04:37:33.861Z,3.66
2018-02-03T04:40:00.075Z,3.66
2018-02-03T04:42:26.343Z,3.66
2018-02-03T04:44:52.576Z,3.64
2018-02-03T04:47:18.706Z,3.62
2018-02-03T04:49:44.904Z,3.60
2018-02-03T04:52:11.036Z,3.59
2018-02-03T04:54:44.131Z,3.58
2018-02-03T04:57:10.282Z,3.60
2018-02-03T04:59:36.440Z,3.59
2018-02-03T05:02:02.568Z,3.59
2018-02-03T05:04:29.558Z,3.59
2018-02-03T05:06:55.666Z,3.58
2018-02-03T05:09:21.811Z,3.57
2018-02-03T05:11:48.053Z,3.57
2018-02-03T05:14:14.232Z,3.55
2018-02-03T05:16:40.406Z,3.54
2018-02-03T05:19:07.646Z,3.53
2018-02-03T05:21:33.792Z,3.53
2018-02-03T05:23:59.979Z,3.52
2018-02-03T05:26:26.204Z,3.52
2018-02-03T05:28:52.343Z,3.52
2018-02-03T05:31:18.557Z,3.54
2018-02-03T05:33:44.700Z,3.55
2018-02-03T05:36:10.833Z,3.54
2018-02-03T05:38:37.795Z,3.53
2018-02-03T05:41:04.080Z,3.53
2018-02-03T05:43:33.230Z,3.52
2018-02-03T05:45:59.493Z,3.53
2018-02-03T05:48:25.806Z,3.53
2018-02-03T05:50:53.010Z,3.53
2018-02-03T05:53:19.302Z,3.53
2018-02-03T05:55:45.493Z,3.52
2018-02-03T05:58:11.621Z,3.50
2018-02-03T06:00:37.792Z,3.49
2018-02-03T06:03:03.969Z,3.50
2018-02-03T06:05:30.141Z,3.50
2018-02-03T06:07:56.697Z,3.50
2018-02-03T06:10:22.873Z,3.50
2018-02-03T06:12:49.000Z,3.51
2018-02-03T06:15:15.192Z,3.51
2018-02-03T06:17:41.335Z,3.52
2018-02-03T06:20:07.614Z,3.54
2018-02-03T06:22:33.798Z,3.55
2018-02-03T06:24:59.970Z,3.55
2018-02-03T06:27:26.138Z,3.55
2018-02-03T06:29:52.327Z,3.56
2018-02-03T06:32:18.462Z,3.56
2018-02-03T06:34:44.596Z,3.55
2018-02-03T06:37:10.765Z,3.54
2018-02-03T06:39:36.942Z,3.55
2018-02-03T06:42:04.118Z,3.52
2018-02-03T06:44:30.284Z,3.53
2018-02-03T06:46:56.469Z,3.51
2018-02-03T06:49:22.681Z,3.53
2018-02-03T06:51:48.932Z,3.51
2018-02-03T06:54:15.175Z,3.50
2018-02-03T06:56:41.326Z,3.50
2018-02-03T06:59:07.459Z,3.50
2018-02-03T07:01:33.800Z,3.50
2018-02-03T07:03:59.965Z,3.49
2018-02-03T07:06:26.076Z,3.48
2018-02-03T07:08:52.271Z,3.48
2018-02-03T07:11:18.468Z,3.45
2018-02-03T07:13:44.625Z,3.46
2018-02-03T07:16:10.802Z,3.46
2018-02-03T07:18:37.008Z,3.47
2018-02-03T07:21:03.225Z,3.47
2018-02-03T07:23:29.438Z,3.46
2018-02-03T07:25:55.623Z,3.46
2018-02-03T07:28:21.791Z,3.48
2018-02-03T07:30:55.279Z,3.47
2018-02-03T07:33:21.416Z,3.48
2018-02-03T07:35:47.650Z,3.48
2018-02-03T07:38:13.788Z,3.49
2018-02-03T07:40:39.970Z,3.49
2018-02-03T07:43:06.196Z,3.52
2018-02-03T07:45:32.341Z,3.50
2018-02-03T07:47:58.454Z,3.50
2018-02-03T07:50:24.651Z,3.51
2018-02-03T07:52:50.838Z,3.51
2018-02-03T07:55:16.964Z,3.54
2018-02-03T07:57:43.217Z,3.55
2018-02-03T08:00:09.496Z,3.56
2018-02-03T08:02:35.697Z,3.58
2018-02-03T08:05:01.913Z,3.60
2018-02-03T08:07:28.130Z,3.60
2018-02-03T08:09:54.371Z,3.60
2018-02-03T08:12:20.548Z,3.62
2018-02-03T08:14:46.750Z,3.65
2018-02-03T08:17:13.297Z,3.67
2018-02-03T08:19:39.552Z,3.70
2018-02-03T08:22:05.756Z,3.72
2018-02-03T08:24:31.963Z,3.76
2018-02-03T08:26:58.139Z,3.78
2018-02-03T08:29:24.287Z,3.82
2018-02-03T08:31:50.508Z,3.84
2018-02-03T08:34:16.666Z,3.86
2018-02-03T08:36:42.813Z,3.89
2018-02-03T08:39:09.027Z,3.90
2018-02-03T08:41:35.234Z,3.93
2018-02-03T08:44:01.514Z,3.94
2018-02-03T08:46:27.702Z,3.96
2018-02-03T08:48:53.920Z,3.98
2018-02-03T08:51:20.104Z,4.02
2018-02-03T08:53:46.340Z,4.03
2018-02-03T08:56:12.460Z,4.04
2018-02-03T08:58:38.870Z,4.07
2018-02-03T09:01:05.014Z,4.10
2018-02-03T09:03:31.132Z,4.15
2018-02-03T09:05:58.224Z,4.15
2018-02-03T09:08:24.840Z,4.17
2018-02-03T09:10:51.033Z,4.19
2018-02-03T09:13:27.155Z,4.18
2018-02-03T09:15:53.296Z,4.23
2018-02-03T09:18:19.760Z,4.27
2018-02-03T09:20:45.919Z,4.29
2018-02-03T09:23:13.128Z,4.32
2018-02-03T09:25:39.290Z,4.32
2018-02-03T09:28:05.413Z,4.34
2018-02-03T09:30:31.588Z,4.39
2018-02-03T09:32:58.495Z,4.44
2018-02-03T09:35:25.081Z,4.48
2018-02-03T09:37:51.178Z,4.52
2018-02-03T09:40:17.347Z,4.54
2018-02-03T09:42:43.471Z,4.55
2018-02-03T09:45:09.595Z,4.57
2018-02-03T09:47:35.759Z,4.62
2018-02-03T09:50:01.945Z,4.63
2018-02-03T09:52:28.077Z,4.66
2018-02-03T09:54:55.230Z,4.66
2018-02-03T09:57:22.350Z,4.67
2018-02-03T09:59:48.554Z,4.73
2018-02-03T10:02:14.755Z,4.78
2018-02-03T10:04:40.928Z,4.86
2018-02-03T10:07:07.094Z,4.90
2018-02-03T10:09:33.266Z,4.88
2018-02-03T10:11:59.473Z,4.90
2018-02-03T10:14:25.663Z,4.94
2018-02-03T10:16:51.935Z,4.95
2018-02-03T10:19:18.159Z,4.98
2018-02-03T10:21:44.419Z,4.98
2018-02-03T10:24:10.713Z,4.98
2018-02-03T10:26:36.934Z,5.00
2018-02-03T10:29:03.085Z,4.99
2018-02-03T10:31:29.369Z,5.00
2018-02-03T10:33:55.578Z,5.04
2018-02-03T10:36:22.658Z,5.03
2018-02-03T10:38:48.888Z,5.02
2018-02-03T10:41:15.328Z,5.03
2018-02-03T10:43:41.480Z,5.06
2018-02-03T10:46:07.660Z,5.09
2018-02-03T10:48:33.857Z,5.12
2018-02-03T10:51:00.127Z,5.12
2018-02-03T10:53:26.323Z,5.17
2018-02-03T10:55:52.530Z,5.19
2018-02-03T10:58:19.331Z,5.20
2018-02-03T11:00:45.618Z,5.22
2018-02-03T11:03:11.779Z,5.24
2018-02-03T11:05:37.944Z,5.26
2018-02-03T11:08:04.180Z,5.27
2018-02-03T11:10:30.592Z,5.26
2018-02-03T11:12:56.737Z,5.28
2018-02-03T11:15:22.912Z,5.28
2018-02-03T11:17:49.121Z,5.31
2018-02-03T11:20:15.314Z,5.36
2018-02-03T11:22:41.532Z,5.38
2018-02-03T11:25:07.729Z,5.40
2018-02-03T11:27:33.925Z,5.45
2018-02-03T11:30:00.096Z,5.50
2018-02-03T11:32:26.360Z,5.53
2018-02-03T11:34:52.578Z,5.58
2018-02-03T11:37:18.780Z,5.60
2018-02-03T11:39:45.036Z,5.61
2018-02-03T11:42:11.296Z,5.64
2018-02-03T11:44:37.475Z,5.68
2018-02-03T11:47:03.750Z,5.75
2018-02-03T11:49:29.920Z,5.87
2018-02-03T11:51:56.859Z,5.96
2018-02-03T11:54:23.060Z,5.97
2018-02-03T11:56:49.241Z,5.98
2018-02-03T11:59:16.142Z,6.01
2018-02-03T12:01:43.066Z,5.96
2018-02-03T12:04:09.343Z,5.86
2018-02-03T12:06:35.432Z,5.89
2018-02-03T12:09:01.551Z,5.88
2018-02-03T12:11:27.701Z,5.78
2018-02-03T12:13:53.801Z,5.75
2018-02-03T12:16:20.089Z,5.73
2018-02-03T12:18:46.214Z,5.77
2018-02-03T12:21:12.372Z,5.79
2018-02-03T12:23:38.522Z,5.88
2018-02-03T12:26:04.669Z,5.83
2018-02-03T12:28:31.036Z,5.85
2018-02-03T12:30:57.268Z,5.96
2018-02-03T12:33:23.543Z,5.99
2018-02-03T12:35:49.732Z,5.96
2018-02-03T12:38:15.921Z,5.96
2018-02-03T12:40:42.145Z,5.99
2018-02-03T12:43:08.449Z,6.03
2018-02-03T12:45:34.628Z,6.14
2018-02-03T12:48:00.856Z,6.20
2018-02-03T12:50:27.057Z,6.20
2018-02-03T12:52:54.199Z,6.25
2018-02-03T12:55:20.362Z,6.31
2018-02-03T12:57:46.597Z,6.38
2018-02-03T13:00:12.824Z,6.42
2018-02-03T13:02:39.087Z,6.46
2018-02-03T13:05:06.168Z,6.49
2018-02-03T13:07:32.350Z,6.41
2018-02-03T13:09:58.521Z,6.35
2018-02-03T13:12:24.757Z,6.31
2018-02-03T13:14:50.971Z,6.27
2018-02-03T13:17:17.144Z,6.29
2018-02-03T13:19:43.351Z,6.20
2018-02-03T13:22:09.635Z,6.14
2018-02-03T13:24:35.887Z,6.10
2018-02-03T13:27:02.085Z,6.04
2018-02-03T13:29:28.298Z,5.99
2018-02-03T13:31:54.502Z,5.97
2018-02-03T13:34:20.680Z,5.98
2018-02-03T13:36:46.904Z,5.92
2018-02-03T13:39:13.063Z,5.95
2018-02-03T13:41:39.258Z,5.98
2018-02-03T13:44:05.511Z,6.00
2018-02-03T13:46:31.710Z,6.06
2018-02-03T13:48:57.869Z,6.10
2018-02-03T13:51:31.003Z,6.15
2018-02-03T13:53:57.245Z,6.12
2018-02-03T13:56:23.428Z,6.15
2018-02-03T13:58:49.606Z,6.17
2018-02-03T14:01:15.898Z,6.22
2018-02-03T14:03:42.058Z,6.24
2018-02-03T14:06:08.227Z,6.26
2018-02-03T14:08:34.418Z,6.26
2018-02-03T14:11:00.588Z,6.23
2018-02-03T14:13:26.772Z,6.26
2018-02-03T14:15:52.950Z,6.20
2018-02-03T14:18:19.147Z,6.21
2018-02-03T14:20:45.313Z,6.20
2018-02-03T14:23:11.562Z,6.23
2018-02-03T14:25:37.801Z,6.26
2018-02-03T14:28:04.022Z,6.25
2018-02-03T14:30:30.239Z,6.29
2018-02-03T14:32:56.456Z,6.32
2018-02-03T14:35:22.670Z,6.36
2018-02-03T14:37:48.829Z,6.38
2018-02-03T14:40:15.067Z,6.38
2018-02-03T14:42:41.279Z,6.35
2018-02-03T14:45:07.444Z,6.33
2018-02-03T14:47:33.724Z,6.30
2018-02-03T14:49:59.899Z,6.24
2018-02-03T14:52:26.109Z,6.22
2018-02-03T14:54:52.327Z,6.15
2018-02-03T14:57:18.549Z,6.09
2018-02-03T14:59:44.710Z,5.99
2018-02-03T15:02:10.919Z,5.96
2018-02-03T15:04:37.159Z,5.96
2018-02-03T15:07:03.381Z,5.95
2018-02-03T15:09:30.574Z,5.97
2018-02-03T15:11:56.791Z,5.95
2018-02-03T15:14:23.069Z,5.95
2018-02-03T15:16:49.336Z,5.94
2018-02-03T15:19:15.462Z,5.94
2018-02-03T15:21:41.848Z,5.96
2018-02-03T15:24:08.148Z,5.93
2018-02-03T15:26:34.386Z,5.79
2018-02-03T15:29:00.577Z,5.68
2018-02-03T15:31:26.774Z,5.60
2018-02-03T15:33:52.995Z,5.50
2018-02-03T15:36:19.123Z,5.40
2018-02-03T15:38:45.259Z,5.35
2018-02-03T15:41:11.460Z,5.28
2018-02-03T15:43:37.713Z,5.18
2018-02-03T15:46:03.875Z,5.10
2018-02-03T15:48:30.088Z,5.01
2018-02-03T15:50:56.295Z,4.96
2018-02-03T15:53:22.521Z,4.89
2018-02-03T15:55:48.730Z,4.82
2018-02-03T15:58:14.869Z,4.75
2018-02-03T16:00:41.093Z,4.73
2018-02-03T16:03:07.305Z,4.70
2018-02-03T16:05:33.466Z,4.68
2018-02-03T16:07:59.664Z,4.65
2018-02-03T16:10:25.820Z,4.64
2018-02-03T16:12:52.044Z,4.61
2018-02-03T16:15:18.262Z,4.59
2018-02-03T16:17:44.455Z,4.58
2018-02-03T16:20:10.644Z,4.55
2018-02-03T16:22:36.907Z,4.52
2018-02-03T16:25:03.143Z,4.50
2018-02-03T16:27:29.361Z,4.46
2018-02-03T16:29:55.512Z,4.43
2018-02-03T16:32:21.664Z,4.42
2018-02-03T16:34:47.810Z,4.40
2018-02-03T16:37:13.904Z,4.39
2018-02-03T16:39:40.008Z,4.37
2018-02-03T16:42:06.170Z,4.36
2018-02-03T16:44:32.286Z,4.33
2018-02-03T16:46:58.367Z,4.33
2018-02-03T16:49:24.608Z,4.32
2018-02-03T16:51:50.719Z,4.30
2018-02-03T16:54:16.886Z,4.30
2018-02-03T16:56:43.003Z,4.28
2018-02-03T16:59:09.126Z,4.29
2018-02-03T17:01:35.263Z,4.27
2018-02-03T17:04:01.495Z,4.28
2018-02-03T17:06:27.988Z,4.27
2018-02-03T17:08:54.217Z,4.26
2018-02-03T17:11:20.484Z,4.26
2018-02-03T17:13:46.697Z,4.25
2018-02-03T17:16:12.979Z,4.25
2018-02-03T17:18:39.181Z,4.26
2018-02-03T17:21:05.331Z,4.26
2018-02-03T17:23:31.579Z,4.27
2018-02-03T17:25:57.879Z,4.26
2018-02-03T17:28:24.037Z,4.26
2018-02-03T17:30:50.213Z,4.25
2018-02-03T17:33:16.461Z,4.27
2018-02-03T17:35:42.666Z,4.26
2018-02-03T17:38:14.890Z,4.26
2018-02-03T17:40:41.076Z,4.28
2018-02-03T17:43:07.298Z,4.28
2018-02-03T17:45:39.499Z,4.27
2018-02-03T17:48:05.880Z,4.29
2018-02-03T17:50:32.094Z,4.27
2018-02-03T17:52:59.310Z,4.28
2018-02-03T17:55:31.783Z,4.27
2018-02-03T17:57:57.911Z,4.26
2018-02-03T18:00:24.120Z,4.26
2018-02-03T18:02:50.307Z,4.26
2018-02-03T18:05:16.455Z,4.27
2018-02-03T18:07:42.682Z,4.26
2018-02-03T18:10:08.940Z,4.26
2018-02-03T18:12:35.179Z,4.22
2018-02-03T18:15:01.317Z,4.20
2018-02-03T18:17:27.954Z,4.19
2018-02-03T18:19:54.328Z,4.18
2018-02-03T18:22:20.593Z,4.16
2018-02-03T18:24:47.081Z,4.15
2018-02-03T18:27:13.313Z,4.07
2018-02-03T18:29:39.606Z,4.07
2018-02-03T18:32:05.866Z,4.05
2018-02-03T18:34:32.155Z,4.03
2018-02-03T18:36:58.322Z,4.00
2018-02-03T18:39:24.671Z,3.99
2018-02-03T18:41:50.910Z,3.98
2018-02-03T18:44:17.182Z,3.98
2018-02-03T18:46:43.423Z,3.98
2018-02-03T18:49:09.707Z,3.97
2018-02-03T18:51:35.956Z,3.97
2018-02-03T18:54:02.179Z,4.00
2018-02-03T18:56:28.364Z,3.98
2018-02-03T18:58:54.568Z,3.95
2018-02-03T19:01:20.924Z,3.94
2018-02-03T19:03:47.191Z,3.92
2018-02-03T19:06:13.504Z,3.91
2018-02-03T19:08:39.725Z,3.90
2018-02-03T19:11:05.983Z,3.90
2018-02-03T19:13:32.229Z,3.88
2018-02-03T19:15:58.790Z,3.85
2018-02-03T19:18:25.050Z,3.87
2018-02-03T19:20:51.269Z,3.86
2018-02-03T19:23:18.663Z,3.87
2018-02-03T19:25:44.805Z,3.86
2018-02-03T19:28:10.951Z,3.88
2018-02-03T19:30:38.227Z,3.87
2018-02-03T19:33:04.422Z,3.88
2018-02-03T19:35:30.671Z,3.88
2018-02-03T19:37:56.998Z,3.86
2018-02-03T19:40:23.247Z,3.85
2018-02-03T19:42:49.483Z,3.83
2018-02-03T19:45:16.421Z,3.83
2018-02-03T19:47:42.634Z,3.82
2018-02-03T19:50:08.821Z,3.80
2018-02-03T19:52:35.075Z,3.79
2018-02-03T19:55:01.293Z,3.76
2018-02-03T19:57:27.546Z,3.73
2018-02-03T19:59:53.888Z,3.71
2018-02-03T20:02:20.142Z,3.69
2018-02-03T20:04:46.297Z,3.67
2018-02-03T20:07:12.541Z,3.64
2018-02-03T20:09:38.790Z,3.62
2018-02-03T20:12:05.091Z,3.58
2018-02-03T20:14:31.336Z,3.54
2018-02-03T20:16:57.461Z,3.51
2018-02-03T20:19:23.747Z,3.48
2018-02-03T20:21:49.957Z,3.45
2018-02-03T20:24:16.244Z,3.41
2018-02-03T20:26:42.436Z,3.40
2018-02-03T20:29:08.639Z,3.35
2018-02-03T20:31:34.938Z,3.31
2018-02-03T20:34:01.063Z,3.26
2018-02-03T20:36:27.984Z,3.21
2018-02-03T20:38:54.154Z,3.17
2018-02-03T20:41:20.418Z,3.14
2018-02-03T20:43:46.624Z,3.09
2018-02-03T20:46:12.750Z,3.06
2018-02-03T20:48:38.891Z,3.03
2018-02-03T20:51:05.078Z,2.98
2018-02-03T20:53:31.317Z,2.96
2018-02-03T20:55:57.611Z,2.91
2018-02-03T20:58:23.803Z,2.87
2018-02-03T21:00:50.016Z,2.84
2018-02-03T21:03:16.207Z,2.81
2018-02-03T21:05:42.312Z,2.80
2018-02-03T21:08:08.454Z,2.79
2018-02-03T21:10:34.572Z,2.79
2018-02-03T21:13:00.814Z,2.80
2018-02-03T21:15:26.945Z,2.78
2018-02-03T21:17:53.099Z,2.76
2018-02-03T21:20:19.987Z,2.73
2018-02-03T21:22:46.207Z,2.68
2018-02-03T21:25:12.324Z,2.65
2018-02-03T21:27:38.529Z,2.59
2018-02-03T21:30:04.764Z,2.55
2018-02-03T21:32:30.991Z,2.50
2018-02-03T21:34:57.208Z,2.47
2018-02-03T21:37:23.309Z,2.42
2018-02-03T21:39:49.538Z,2.39
2018-02-03T21:42:16.759Z,2.34
2018-02-03T21:44:43.014Z,2.27
2018-02-03T21:47:09.151Z,2.21
2018-02-03T21:49:35.303Z,2.15
2018-02-03T21:52:02.120Z,2.12
2018-02-03T21:54:28.304Z,2.06
2018-02-03T21:56:54.463Z,1.99
2018-02-03T21:59:20.598Z,1.93
2018-02-03T22:01:46.842Z,1.88
2018-02-03T22:04:13.105Z,1.84
2018-02-03T22:06:39.229Z,1.78
2018-02-03T22:09:05.369Z,1.75
2018-02-03T22:11:31.528Z,1.68
2018-02-03T22:13:57.828Z,1.64
2018-02-03T22:16:24.140Z,1.63
2018-02-03T22:18:50.314Z,1.62
2018-02-03T22:21:16.490Z,1.63
2018-02-03T22:23:42.709Z,1.65
2018-02-03T22:26:08.892Z,1.64
2018-02-03T22:28:35.060Z,1.62
2018-02-03T22:31:01.181Z,1.62
2018-02-03T22:33:27.341Z,1.66
2018-02-03T22:35:53.631Z,1.71
2018-02-03T22:38:19.794Z,1.75
2018-02-03T22:40:45.907Z,1.72
2018-02-03T22:43:12.045Z,1.71
2018-02-03T22:45:38.166Z,1.73
2018-02-03T22:48:04.319Z,1.75
2018-02-03T22:50:30.509Z,1.76
2018-02-03T22:52:57.771Z,1.75
2018-02-03T22:55:23.882Z,1.80
2018-02-03T22:57:50.050Z,1.84
2018-02-03T23:00:16.168Z,1.86
2018-02-03T23:02:58.185Z,1.83
2018-02-03T23:05:24.333Z,1.79
2018-02-03T23:07:50.457Z,1.81
2018-02-03T23:10:16.675Z,1.78
2018-02-03T23:12:42.848Z,1.77
2018-02-03T23:15:08.985Z,1.76
2018-02-03T23:17:42.570Z,1.76
2018-02-03T23:20:08.791Z,1.76
2018-02-03T23:22:34.967Z,1.73
2018-02-03T23:25:01.410Z,1.70
2018-02-03T23:27:29.296Z,1.66
2018-02-03T23:29:56.207Z,1.59
2018-02-03T23:32:22.384Z,1.53
2018-02-03T23:34:49.316Z,1.50
2018-02-03T23:37:15.473Z,1.48
2018-02-03T23:39:41.562Z,1.55
2018-02-03T23:42:07.843Z,1.60
2018-02-03T23:44:34.472Z,1.65
2018-02-03T23:47:00.622Z,1.78
2018-02-03T23:49:30.251Z,1.92
2018-02-03T23:51:56.442Z,2.00
2018-02-03T23:54:22.762Z,2.07
2018-02-03T23:56:49.043Z,2.15
2018-02-03T23:59:15.222Z,2.20
